Aviation Digital Data Service (ADDS)

Output produced by METARs form (0300 UTC 24 July 2016)
found at http://aviationweather.gov/adds/metars/
 
KCAR 232324Z 2400/2424 32005KT P6SM SCT100 
     FM240900 33006KT 4SM BR SCT004 
     FM241100 33007KT P6SM BKN070